Friday, January 18, 2019, 3:15 AM EST
Back to Local

KORE, Orange, Orange Municipal Airport

Location: Orange, MA, United States Lat: 42.572
Local Time: 3:15 AM EST ( 8:15 GMT) Lon: -72.278
Time Zone: US/Eastern Elev: 554 ft

Show me the last for .
Show Coded

Time T Td Feel RH Dir Speed Gust Alt SLP Vis Weather Sky Remarks
2019-01-18 02:52 21 10 - 61 - Calm - 30.21 30.23 10 OVC031 None
2019-01-18 01:52 20 9 - 61 - Calm - 30.22 30.24 10 OVC085 None
2019-01-18 00:52 21 9 - 58 - Calm - 30.23 30.26 10 OVC080 6-hr Min Temp (1am): 18.0°F
6-hr Max Temp (1am): 21.0°F
2019-01-17 23:52 20 9 - 61 - Calm - 30.25 30.28 10 OVC100 24-hr Min Temp (12am): 7.0°F
24-hr Max Temp (12am): 28.0°F
2019-01-17 22:52 20 7 - 56 - Calm - 30.28 30.30 10 BKN095 OVC110 None
2019-01-17 21:52 20 6 - 54 - Calm - 30.27 30.30 10 BKN120 None
2019-01-17 20:52 20 5 - 51 - Calm - 30.29 30.32 10 SCT120 None
2019-01-17 19:52 19 5 - 53 - Calm - 30.30 30.33 10 CLR None
2019-01-17 18:52 19 0 - 42 - Calm - 30.30 30.33 10 CLR 6-hr Min Temp (7pm): 18.0°F
6-hr Max Temp (7pm): 28.0°F
2019-01-17 17:52 20 0 - 40 - Calm - 30.30 30.33 10 CLR None
2019-01-17 16:52 23 -5 16 28 200° 6 - 30.29 30.32 10 CLR None
2019-01-17 15:52 27 -12 - 17 - Calm - 30.29 30.32 10 FEW120 None
2019-01-17 14:52 27 -10 23 18 340° 3 - 30.30 30.33 10 CLR None
2019-01-17 13:52 26 -11 - 18 - Calm - 30.32 30.35 10 CLR None
2019-01-17 12:52 25 -8 19 22 320° 5 - 30.34 30.36 10 CLR 6-hr Min Temp (1pm): 7.0°F
6-hr Max Temp (1pm): 25.0°F
2019-01-17 11:52 22 -6 16 28 270° 5 - 30.36 30.39 10 CLR None
2019-01-17 10:52 19 -6 11 31 310° 6 - 30.40 30.42 10 CLR None
2019-01-17 09:52 17 -3 8 40 340° 7 - 30.40 30.43 10 CLR None
2019-01-17 08:52 14 -1 5 50 350° 6 - 30.39 30.42 10 CLR None
2019-01-17 07:52 11 1 5 63 330° 3 - 30.36 30.39 10 CLR None
2019-01-17 06:52 8 0 1 68 310° 3 - 30.34 30.37 10 CLR 6-hr Min Temp (7am): 8.1°F
6-hr Max Temp (7am): 24.1°F
2019-01-17 05:52 11 0 - 60 - Calm - 30.32 30.35 10 CLR None
2019-01-17 04:52 13 1 5 58 300° 5 - 30.31 30.34 10 CLR None
2019-01-17 03:52 15 2 5 55 360° 7 - 30.28 30.31 10 CLR None

Support USWX by starting your Amazon purchase here.